Folsom, NM (88419)

8:55 AM MDT on August 28, 2014 (GMT -0600)
Baca Valley | Change Station
CLOSE
Current Station
Personal Weather Station
Location: Des Moines, NM
Elevation: 6645 ft
Nearby Weather Stations

Elev 6645 ft 36.76 °N, 103.83 °W | Updated 10 minutes ago

Clear
Clear
62.0 °F
Feels Like 62.0 °F
N
5.0
Wind Variable Wind from West
Gusts 8.0 mph

Today
High -- | Low -- °F
--% Chance of Precip.
Yesterday
High -- | Low -- °F
Precip. -- in
6:22 AM 7:29 PM
Waxing Crescent, 8% visible
Pressure 29.98 in
Visibility 10.0 miles
Clouds Clear
Dew Point 52 °F
Humidity 69%
Rainfall -999.00 in
Snow Depth Not available.
UV 1 out of 12
Pollen 9.60 out of 12
Air Quality Not available.
Flu Activity Not available.
METAR KTAD 281354Z AUTO 28008KT 10SM CLR 14/06 A3018 RMK AO2 SLP150 T01390056

More Conditions Fewer Conditions

Pressure 29.98 in
Visibility 10.0 miles
Clouds Clear
Dew Point 52 °F
Humidity 69%
Rainfall -999.00 in
Snow Depth Not available.
UV 1 out of 12
Pollen 9.60 out of 12
Air Quality Not available.
Flu Activity Not available.
METAR KTAD 281354Z AUTO 28008KT 10SM CLR 14/06 A3018 RMK AO2 SLP150 T01390056

More Conditions Fewer Conditions

10-Day Weather Forecast

Almanac

Astronomy

Aug. 28, 2014 Rise Set
Actual Time 6:22 AM MDT 7:29 PM MDT
Civil Twilight 5:56 AM MDT 7:55 PM MDT
Nautical Twilight 5:24 AM MDT 8:27 PM MDT
Astronomical Twilight 4:51 AM MDT 9:00 PM MDT
Moon 9:12 AM MDT 9:00 PM MDT
Length of Visible Light 13h 59m
Length of Day
13h 06m
Tomorrow will be 2m 13s shorter.
Waxing Crescent, 8% of the Moon is Illuminated
Today
Waxing Crescent
Sep 2
First Quarter
Sep 8
Full
Sep 15
Last Quarter
Sep 24
New

Today's Extremes

State Highs State Lows

Community

WunderPhotos

Upload Photos

1,747,970 photos uploaded!

Nearby

Snow Depth

Station Depth Elevation
North Costilla 1 in 10600 ft
Tolby 1 in 10180 ft
Gallegos Peak 1 in 9800 ft
Wesner Springs 1 in 11120 ft
Santa Fe 0 in 11445 ft

Earthquake Activity

City Distance Mag. Time & Date
No recent earthquake activity has been reported nearby.
Minimum magnitude displayed is 2.5.

Coastal Water Temperatures

Place Temperature
No Stations Reporting

Nearby Weather Stations